Lake Arthur, New Mexico
Current Conditions -  °F | °C
As of 6:51 PM on Saturday 22 Nov 2014 (Local Time) from KROW Reporting Station
Clear Clear  
Wind Chill: 44°   Ceiling: Unl
Heat Index: 46°   Visibility: 10mi
Dew Point: 24°   Wind: 5mph
Humidity: 42%   Direction: 200°SSW
Pressure: 29.8"   Gusts: NA
Location:  33°N, 104.37°W
Report Text: KROW 230151Z 20004KT 10SM CLR 08/M04 A2980 RMK AO2 SLP070 T00781044
Loading
Personal Weather Stations






























Interactive Weather Map New forecast layout! Learn more

10-Day Weather Forecast

Advertisements
Track Severe Weather on mobile